Decoded Metar for KBML (BERLIN in NH, USA) (IATA:BML) | Meteo·Mobile Aviation Weather
aviador You're here:

KBML Decoded Metar

BERLIN in NH, USA
Report Time2018-11-19 10:52:00
UTC Time2018-11-19 11:21:54
Flight Rules mvfr MVFR
WindCalm
Visibility9999 m
Phenomena:N/A
Clouds:Overcast 025 Hf
Expected CloudBase > 1,200 ft AGL from Temp-Dew spread
Ceiling2,500 ft
Temp-6°C (ISA -19)
Dew Point-9°C (80% RH)
AAT-9.0°C
QNH1020 hPa
Density Alt-1,378 ft
Elevation1,132 ft
Report Wrong Elevation
Raw Report
KBML 191052Z AUTO 00000KT 10SM OVC025 M06/M09 A3011 RMK AO2 SLP217
T10561089=

Extra information for KBML:More info

Metar Taf Metar & Taf Last 4 Metars F.Rules Stats Wind Profile Meteogram Temp Stats Airport Information Weather charts Add Link Nearby VenuesMetar ALERT Operation Metar Decoded Social comments

AIRNAV info for KBML